createdAt,value
2023-02-26T00:01:30.240Z,0.80
2023-02-26T00:04:00.126Z,0.70
2023-02-26T00:06:28.288Z,0.80
2023-02-26T00:08:56.125Z,0.80
2023-02-26T00:11:23.582Z,0.90
2023-02-26T00:13:51.127Z,0.90
2023-02-26T00:16:32.376Z,0.90
2023-02-26T00:19:02.204Z,0.90
2023-02-26T00:21:30.822Z,0.90
2023-02-26T00:23:58.642Z,0.90
2023-02-26T00:26:27.607Z,0.90
2023-02-26T00:29:10.032Z,0.90
2023-02-26T00:31:38.523Z,0.90
2023-02-26T00:34:12.954Z,0.90
2023-02-26T00:37:02.615Z,1.00
2023-02-26T00:39:46.166Z,1.10
2023-02-26T00:42:14.634Z,1.10
2023-02-26T00:44:44.138Z,1.10
2023-02-26T00:47:45.880Z,1.20
2023-02-26T00:50:16.764Z,1.20
2023-02-26T00:52:54.515Z,1.30
2023-02-26T00:55:21.701Z,1.30
2023-02-26T00:57:48.756Z,1.30
2023-02-26T01:00:16.722Z,1.30
2023-02-26T01:02:44.778Z,1.40
2023-02-26T01:05:12.448Z,1.40
2023-02-26T01:07:57.132Z,1.40
2023-02-26T01:10:24.762Z,1.40
2023-02-26T01:12:53.094Z,1.50
2023-02-26T01:15:27.435Z,1.50
2023-02-26T01:18:29.819Z,1.50
2023-02-26T01:21:10.335Z,1.50
2023-02-26T01:23:41.400Z,1.50
2023-02-26T01:26:21.564Z,1.50
2023-02-26T01:28:48.749Z,1.50
2023-02-26T01:31:35.393Z,1.50
2023-02-26T01:34:16.567Z,1.60
2023-02-26T01:36:54.464Z,1.50
2023-02-26T01:39:48.855Z,1.50
2023-02-26T01:42:21.795Z,1.60
2023-02-26T01:44:48.737Z,1.60
2023-02-26T01:47:20.090Z,1.60
2023-02-26T01:49:47.501Z,1.60
2023-02-26T01:52:51.797Z,1.60
2023-02-26T01:55:26.202Z,1.60
2023-02-26T01:57:57.371Z,1.60
2023-02-26T02:00:24.478Z,1.60
2023-02-26T02:02:51.488Z,1.70
2023-02-26T02:05:35.763Z,1.70
2023-02-26T02:08:02.963Z,1.60
2023-02-26T02:10:30.289Z,1.70
2023-02-26T02:13:14.836Z,1.70
2023-02-26T02:15:53.607Z,1.60
2023-02-26T02:18:33.846Z,1.60
2023-02-26T02:21:30.041Z,1.50
2023-02-26T02:24:00.028Z,1.50
2023-02-26T02:26:41.058Z,1.50
2023-02-26T02:29:20.300Z,1.40
2023-02-26T02:32:05.967Z,1.40
2023-02-26T02:34:55.052Z,1.40
2023-02-26T02:37:41.194Z,1.40
2023-02-26T02:40:13.563Z,1.40
2023-02-26T02:42:58.808Z,1.40
2023-02-26T02:45:28.775Z,1.40
2023-02-26T02:48:09.121Z,1.40
2023-02-26T02:50:41.436Z,1.50
2023-02-26T02:53:12.085Z,1.50
2023-02-26T02:55:49.220Z,1.50
2023-02-26T02:58:21.257Z,1.50
2023-02-26T03:00:56.426Z,1.60
2023-02-26T03:03:44.547Z,1.60
2023-02-26T03:06:11.647Z,1.60
2023-02-26T03:08:46.202Z,1.50
2023-02-26T03:11:13.234Z,1.60
2023-02-26T03:13:41.238Z,1.60
2023-02-26T03:16:19.756Z,1.60
2023-02-26T03:18:53.698Z,1.50
2023-02-26T03:21:30.644Z,1.50
2023-02-26T03:24:06.462Z,1.40
2023-02-26T03:26:42.806Z,1.30
2023-02-26T03:29:59.805Z,1.20
2023-02-26T03:32:51.490Z,1.10
2023-02-26T03:35:38.545Z,1.00
2023-02-26T03:38:10.052Z,1.00
2023-02-26T03:40:46.002Z,0.90
2023-02-26T03:43:22.595Z,0.80
2023-02-26T03:45:54.165Z,0.80
2023-02-26T03:48:24.939Z,0.70
2023-02-26T03:50:55.079Z,0.70
2023-02-26T03:53:27.609Z,0.60
2023-02-26T03:56:08.030Z,0.60
2023-02-26T03:58:35.616Z,0.60
2023-02-26T04:01:16.954Z,0.60
2023-02-26T04:04:04.147Z,0.50
2023-02-26T04:06:31.664Z,0.50
2023-02-26T04:08:58.712Z,0.50
2023-02-26T04:11:26.855Z,0.40
2023-02-26T04:13:53.823Z,0.40
2023-02-26T04:16:21.060Z,0.40
2023-02-26T04:18:47.952Z,0.40
2023-02-26T04:21:17.657Z,0.40
2023-02-26T04:23:44.494Z,0.30
2023-02-26T04:26:13.174Z,0.30
2023-02-26T04:28:40.653Z,0.20
2023-02-26T04:31:08.759Z,0.20
2023-02-26T04:33:36.301Z,0.20
2023-02-26T04:36:04.984Z,0.20
2023-02-26T04:38:32.056Z,0.10
2023-02-26T04:40:58.976Z,0.10
2023-02-26T04:43:26.126Z,0.10
2023-02-26T04:45:52.877Z,0.00
2023-02-26T04:48:19.921Z,0.00
2023-02-26T04:50:46.789Z,-0.10
2023-02-26T04:53:13.911Z,-0.10
2023-02-26T04:55:41.532Z,-0.10
2023-02-26T04:58:09.126Z,-0.20
2023-02-26T05:00:36.372Z,-0.20
2023-02-26T05:03:03.349Z,-0.20
2023-02-26T05:05:30.338Z,-0.30
2023-02-26T05:07:57.307Z,-0.30
2023-02-26T05:10:25.481Z,-0.30
2023-02-26T05:12:52.480Z,-0.30
2023-02-26T05:15:20.255Z,-0.30
2023-02-26T05:17:47.188Z,-0.30
2023-02-26T05:20:15.454Z,-0.40
2023-02-26T05:22:43.118Z,-0.40
2023-02-26T05:25:14.094Z,-0.40
2023-02-26T05:27:45.219Z,-0.30
2023-02-26T05:30:15.201Z,-0.30
2023-02-26T05:32:42.737Z,-0.30
2023-02-26T05:35:10.473Z,-0.20
2023-02-26T05:37:37.680Z,-0.30
2023-02-26T05:40:07.069Z,-0.30
2023-02-26T05:42:34.055Z,-0.30
2023-02-26T05:45:01.140Z,-0.30
2023-02-26T05:47:28.101Z,-0.30
2023-02-26T05:49:55.032Z,-0.30
2023-02-26T05:52:21.972Z,-0.30
2023-02-26T05:54:49.054Z,-0.30
2023-02-26T05:57:15.854Z,-0.30
2023-02-26T05:59:42.872Z,-0.30
2023-02-26T06:02:10.084Z,-0.40
2023-02-26T06:04:37.195Z,-0.40
2023-02-26T06:07:04.159Z,-0.40
2023-02-26T06:09:30.980Z,-0.40
2023-02-26T06:11:57.871Z,-0.40
2023-02-26T06:14:24.919Z,-0.30
2023-02-26T06:16:51.963Z,-0.30
2023-02-26T06:19:21.648Z,-0.30
2023-02-26T06:21:48.728Z,-0.30
2023-02-26T06:24:15.624Z,-0.30
2023-02-26T06:26:42.777Z,-0.20
2023-02-26T06:29:09.725Z,-0.20
2023-02-26T06:31:36.953Z,-0.20
2023-02-26T06:34:04.028Z,-0.10
2023-02-26T06:36:31.050Z,-0.20
2023-02-26T06:38:57.945Z,-0.20
2023-02-26T06:41:24.861Z,-0.20
2023-02-26T06:43:51.770Z,-0.20
2023-02-26T06:46:18.807Z,-0.20
2023-02-26T06:48:45.747Z,-0.20
2023-02-26T06:51:12.808Z,-0.10
2023-02-26T06:53:39.846Z,-0.10
2023-02-26T06:56:07.144Z,0.00
2023-02-26T06:58:34.396Z,0.00
2023-02-26T07:01:02.948Z,-0.10
2023-02-26T07:03:29.980Z,-0.10
2023-02-26T07:05:57.320Z,0.00
2023-02-26T07:08:26.258Z,0.00
2023-02-26T07:10:53.128Z,0.10
2023-02-26T07:13:20.006Z,0.10
2023-02-26T07:15:46.894Z,0.10
2023-02-26T07:18:13.845Z,0.10
2023-02-26T07:20:42.175Z,0.20
2023-02-26T07:23:09.643Z,0.20
2023-02-26T07:25:37.466Z,0.20
2023-02-26T07:28:04.712Z,0.20
2023-02-26T07:30:31.844Z,0.20
2023-02-26T07:32:58.747Z,0.30
2023-02-26T07:35:26.003Z,0.30
2023-02-26T07:37:52.867Z,0.30
2023-02-26T07:40:20.573Z,0.40
2023-02-26T07:42:47.565Z,0.40
2023-02-26T07:45:14.596Z,0.40
2023-02-26T07:47:41.627Z,0.50
2023-02-26T07:50:09.479Z,0.50
2023-02-26T07:52:37.624Z,0.60
2023-02-26T07:55:04.862Z,0.70
2023-02-26T07:57:31.868Z,0.70
2023-02-26T07:59:58.877Z,0.80
2023-02-26T08:02:25.820Z,0.80
2023-02-26T08:04:53.680Z,0.80
2023-02-26T08:07:20.609Z,0.90
2023-02-26T08:09:47.760Z,1.00
2023-02-26T08:12:14.656Z,1.10
2023-02-26T08:14:41.869Z,1.10
2023-02-26T08:17:10.023Z,1.20
2023-02-26T08:19:37.736Z,1.20
2023-02-26T08:22:04.809Z,1.30
2023-02-26T08:24:31.916Z,1.50
2023-02-26T08:26:58.780Z,1.60
2023-02-26T08:29:25.791Z,1.80
2023-02-26T08:31:53.231Z,1.90
2023-02-26T08:34:20.590Z,2.20
2023-02-26T08:36:47.479Z,2.40
2023-02-26T08:39:14.422Z,2.70
2023-02-26T08:41:41.361Z,3.00
2023-02-26T08:44:08.396Z,3.10
2023-02-26T08:46:35.326Z,3.30
2023-02-26T08:49:02.273Z,3.50
2023-02-26T08:51:29.520Z,3.50
2023-02-26T08:53:57.509Z,3.40
2023-02-26T08:56:25.034Z,3.10
2023-02-26T08:58:52.391Z,3.20
2023-02-26T09:01:19.321Z,3.10
2023-02-26T09:03:46.268Z,3.00
2023-02-26T09:06:13.138Z,2.90
2023-02-26T09:08:40.068Z,2.90
2023-02-26T09:11:07.019Z,2.80
2023-02-26T09:13:33.881Z,2.70
2023-02-26T09:16:01.547Z,2.60
2023-02-26T09:18:29.244Z,2.60
2023-02-26T09:20:56.142Z,2.70
2023-02-26T09:23:23.074Z,2.80
2023-02-26T09:25:57.714Z,3.00
2023-02-26T09:28:26.234Z,3.10
2023-02-26T09:30:55.942Z,3.20
2023-02-26T09:33:23.605Z,3.20
2023-02-26T09:35:52.198Z,3.10
2023-02-26T09:38:19.908Z,3.20
2023-02-26T09:40:58.244Z,3.30
2023-02-26T09:43:44.051Z,3.40
2023-02-26T09:46:29.026Z,3.60
2023-02-26T09:49:13.958Z,3.90
2023-02-26T09:51:42.231Z,4.40
2023-02-26T09:54:39.453Z,4.70
2023-02-26T09:57:11.008Z,4.40
2023-02-26T09:59:38.253Z,4.40
2023-02-26T10:03:00.949Z,4.30
2023-02-26T10:05:43.360Z,4.20
2023-02-26T10:08:19.276Z,3.90
2023-02-26T10:10:58.703Z,3.70
2023-02-26T10:13:56.490Z,3.70
2023-02-26T10:16:28.773Z,3.60
2023-02-26T10:19:01.747Z,3.60
2023-02-26T10:21:51.506Z,3.70
2023-02-26T10:24:46.610Z,3.80
2023-02-26T10:27:17.933Z,4.20
2023-02-26T10:30:01.580Z,4.60
2023-02-26T10:32:43.626Z,4.90
2023-02-26T10:35:17.765Z,4.90
2023-02-26T10:38:04.993Z,5.00
2023-02-26T10:40:41.362Z,5.40
2023-02-26T10:43:27.127Z,5.60
2023-02-26T10:46:25.726Z,5.80
2023-02-26T10:49:07.762Z,6.20
2023-02-26T10:51:39.137Z,6.10
2023-02-26T10:54:24.674Z,6.00
2023-02-26T10:56:51.543Z,5.80
2023-02-26T10:59:18.404Z,5.60
2023-02-26T11:01:45.938Z,5.40
2023-02-26T11:04:18.921Z,5.30
2023-02-26T11:07:04.082Z,5.30
2023-02-26T11:34:12.110Z,4.60
2023-02-26T11:36:42.397Z,4.50
2023-02-26T11:39:17.209Z,4.50
2023-02-26T11:41:47.090Z,4.50
2023-02-26T11:44:22.387Z,4.50
2023-02-26T11:46:56.713Z,4.60
2023-02-26T11:49:27.473Z,4.70
2023-02-26T11:52:28.965Z,4.90
2023-02-26T11:55:05.774Z,5.00
2023-02-26T11:57:33.989Z,5.00
2023-02-26T12:00:17.093Z,5.10
2023-02-26T12:02:44.032Z,5.20
2023-02-26T12:05:17.404Z,5.30
2023-02-26T12:07:47.015Z,5.30
2023-02-26T12:10:19.158Z,5.30
2023-02-26T12:12:58.577Z,5.40
2023-02-26T12:15:47.065Z,5.60
2023-02-26T12:18:34.255Z,5.60
2023-02-26T12:21:21.767Z,5.80
2023-02-26T12:24:10.765Z,5.90
2023-02-26T12:27:16.402Z,6.10
2023-02-26T12:29:55.214Z,6.30
2023-02-26T12:32:52.472Z,6.10
2023-02-26T12:35:35.060Z,6.10
2023-02-26T12:38:25.143Z,6.10
2023-02-26T12:41:07.271Z,5.90
2023-02-26T12:43:40.367Z,5.80
2023-02-26T12:46:31.970Z,5.70
2023-02-26T12:49:23.902Z,5.60
2023-02-26T12:52:20.732Z,5.70
2023-02-26T12:55:22.004Z,5.60
2023-02-26T12:58:00.720Z,5.60
2023-02-26T13:00:39.563Z,5.50
2023-02-26T13:03:19.199Z,5.60
2023-02-26T13:06:21.844Z,5.60
2023-02-26T13:09:23.931Z,5.60
2023-02-26T13:12:07.898Z,5.50
2023-02-26T13:14:50.686Z,5.50
2023-02-26T13:17:30.213Z,5.70
2023-02-26T13:20:02.853Z,5.90
2023-02-26T13:22:39.758Z,5.90
2023-02-26T13:25:26.598Z,5.80
2023-02-26T13:27:57.216Z,5.80
2023-02-26T13:30:27.108Z,5.70
2023-02-26T13:32:56.883Z,5.80
2023-02-26T13:35:42.068Z,5.80
2023-02-26T13:38:30.689Z,5.60
2023-02-26T13:41:11.974Z,5.60
2023-02-26T13:43:47.211Z,5.70
2023-02-26T13:46:42.838Z,5.70
2023-02-26T13:49:22.460Z,6.20
2023-02-26T13:51:52.531Z,6.30
2023-02-26T13:54:22.430Z,6.20
2023-02-26T13:57:26.212Z,6.10
2023-02-26T14:00:32.931Z,5.80
2023-02-26T14:03:18.341Z,5.60
2023-02-26T14:05:48.148Z,5.50
2023-02-26T14:08:25.418Z,5.40
2023-02-26T14:11:24.397Z,5.40
2023-02-26T14:14:18.293Z,5.40
2023-02-26T14:16:50.957Z,5.40
2023-02-26T14:19:28.268Z,5.30
2023-02-26T14:22:17.641Z,5.30
2023-02-26T14:25:18.319Z,5.30
2023-02-26T14:27:47.403Z,5.30
2023-02-26T14:30:20.073Z,5.20
2023-02-26T14:33:10.100Z,5.10
2023-02-26T14:35:43.854Z,5.00
2023-02-26T14:38:31.151Z,5.00
2023-02-26T14:41:19.013Z,5.00
2023-02-26T14:43:53.724Z,5.00
2023-02-26T14:46:20.975Z,5.00
2023-02-26T14:48:48.355Z,5.10
2023-02-26T14:51:51.346Z,5.20
2023-02-26T14:54:33.272Z,5.40
2023-02-26T14:57:15.840Z,5.40
2023-02-26T14:59:57.675Z,5.30
2023-02-26T15:02:55.518Z,5.30
2023-02-26T15:05:34.118Z,5.60
2023-02-26T15:08:19.637Z,5.80
2023-02-26T15:10:52.639Z,5.80
2023-02-26T15:13:36.504Z,5.90
2023-02-26T15:16:31.694Z,6.00
2023-02-26T15:19:16.637Z,5.80
2023-02-26T15:21:53.233Z,5.80
2023-02-26T15:24:20.274Z,5.80
2023-02-26T15:26:51.432Z,5.70
2023-02-26T15:29:21.831Z,5.50
2023-02-26T15:32:01.417Z,5.40
2023-02-26T15:34:28.686Z,5.10
2023-02-26T15:37:01.292Z,5.00
2023-02-26T15:39:28.174Z,5.20
2023-02-26T15:41:56.281Z,5.40
2023-02-26T15:44:28.245Z,5.20
2023-02-26T15:46:59.325Z,5.00
2023-02-26T15:49:42.741Z,4.90
2023-02-26T15:52:15.587Z,4.90
2023-02-26T15:54:46.680Z,4.80
2023-02-26T15:57:16.061Z,4.80
2023-02-26T15:59:46.669Z,4.70
2023-02-26T16:02:20.556Z,4.70
2023-02-26T16:04:47.755Z,4.70
2023-02-26T16:07:14.819Z,4.60
2023-02-26T16:09:52.838Z,4.60
2023-02-26T16:12:35.359Z,4.40
2023-02-26T16:15:11.278Z,4.40
2023-02-26T16:17:42.558Z,4.20
2023-02-26T16:20:17.034Z,4.20
2023-02-26T16:22:50.719Z,4.10
2023-02-26T16:25:25.190Z,4.10
2023-02-26T16:28:02.184Z,4.00
2023-02-26T16:30:38.256Z,3.90
2023-02-26T16:33:12.256Z,3.80
2023-02-26T16:35:48.391Z,3.70
2023-02-26T16:38:24.025Z,3.50
2023-02-26T16:41:11.116Z,3.40
2023-02-26T16:43:50.216Z,3.20
2023-02-26T16:46:28.785Z,3.20
2023-02-26T16:49:00.151Z,3.10
2023-02-26T16:51:31.008Z,3.10
2023-02-26T16:54:19.124Z,3.00
2023-02-26T16:56:48.435Z,2.90
2023-02-26T16:59:20.235Z,2.80
2023-02-26T17:02:01.815Z,2.80
2023-02-26T17:04:35.545Z,2.80
2023-02-26T17:07:05.648Z,2.70
2023-02-26T17:09:39.073Z,2.70
2023-02-26T17:12:11.901Z,2.60
2023-02-26T17:14:45.730Z,2.50
2023-02-26T17:17:12.853Z,2.40
2023-02-26T17:19:39.838Z,2.40
2023-02-26T17:22:13.562Z,2.40
2023-02-26T17:24:44.372Z,2.30
2023-02-26T17:27:35.345Z,2.20
2023-02-26T17:30:05.082Z,2.20
2023-02-26T17:32:32.317Z,2.10
2023-02-26T17:34:59.357Z,2.00
2023-02-26T17:37:31.462Z,2.00
2023-02-26T17:39:59.850Z,2.00
2023-02-26T17:42:26.742Z,1.90
2023-02-26T17:44:55.206Z,1.90
2023-02-26T17:47:24.578Z,1.80
2023-02-26T17:49:52.277Z,1.80
2023-02-26T17:52:19.486Z,1.70
2023-02-26T17:54:46.407Z,1.70
2023-02-26T17:57:18.776Z,1.70
2023-02-26T17:59:46.352Z,1.70
2023-02-26T18:02:27.768Z,1.70
2023-02-26T18:04:54.842Z,1.80
2023-02-26T18:07:23.052Z,1.80
2023-02-26T18:09:49.953Z,1.80
2023-02-26T18:12:19.514Z,1.80
2023-02-26T18:14:47.345Z,1.80
2023-02-26T18:17:18.217Z,1.70
2023-02-26T18:19:46.501Z,1.70
2023-02-26T18:22:14.566Z,1.70
2023-02-26T18:24:42.433Z,1.70
2023-02-26T18:27:19.520Z,1.80
2023-02-26T18:29:46.979Z,1.90
2023-02-26T18:32:15.885Z,2.00
2023-02-26T18:34:43.069Z,2.10
2023-02-26T18:37:14.934Z,2.10
2023-02-26T18:39:42.647Z,2.10
2023-02-26T18:42:19.297Z,2.20
2023-02-26T18:44:46.314Z,2.20
2023-02-26T18:47:13.232Z,2.20
2023-02-26T18:49:40.231Z,2.20
2023-02-26T18:52:07.203Z,2.20
2023-02-26T18:54:34.173Z,2.10
2023-02-26T18:57:01.157Z,2.10
2023-02-26T18:59:28.179Z,2.10
2023-02-26T19:01:55.251Z,2.20
2023-02-26T19:04:22.471Z,2.20
2023-02-26T19:06:49.650Z,2.20
2023-02-26T19:09:16.472Z,2.20
2023-02-26T19:11:43.487Z,2.20
2023-02-26T19:14:10.918Z,2.20
2023-02-26T19:16:39.429Z,2.20
2023-02-26T19:19:11.804Z,2.30
2023-02-26T19:21:40.402Z,2.30
2023-02-26T19:24:09.424Z,2.40
2023-02-26T19:26:37.299Z,2.40
2023-02-26T19:29:06.080Z,2.40
2023-02-26T19:31:33.742Z,2.40
2023-02-26T19:34:01.151Z,2.30
2023-02-26T19:36:33.670Z,2.30
2023-02-26T19:39:02.510Z,2.30
2023-02-26T19:41:30.404Z,2.40
2023-02-26T19:43:57.601Z,2.40
2023-02-26T19:46:25.049Z,2.40
2023-02-26T19:48:53.268Z,2.40
2023-02-26T19:51:20.282Z,2.40
2023-02-26T19:53:47.187Z,2.40
2023-02-26T19:56:14.324Z,2.40
2023-02-26T19:58:43.128Z,2.40
2023-02-26T20:01:10.605Z,2.40
2023-02-26T20:03:37.592Z,2.40
2023-02-26T20:06:04.710Z,2.40
2023-02-26T20:08:32.299Z,2.40
2023-02-26T20:10:59.337Z,2.40
2023-02-26T20:13:29.970Z,2.40
2023-02-26T20:16:00.889Z,2.40
2023-02-26T20:18:30.940Z,2.40
2023-02-26T20:20:59.849Z,2.40
2023-02-26T20:23:27.272Z,2.40
2023-02-26T20:25:58.378Z,2.40
2023-02-26T20:28:25.769Z,2.30
2023-02-26T20:30:53.668Z,2.30
2023-02-26T20:33:25.169Z,2.30
2023-02-26T20:35:54.023Z,2.30
2023-02-26T20:38:23.087Z,2.20
2023-02-26T20:40:50.459Z,2.20
2023-02-26T20:43:17.540Z,2.10
2023-02-26T20:45:44.460Z,2.00
2023-02-26T20:48:11.648Z,1.90
2023-02-26T20:50:38.657Z,1.80
2023-02-26T20:53:07.426Z,1.70
2023-02-26T20:55:34.941Z,1.70
2023-02-26T20:58:02.200Z,1.60
2023-02-26T21:00:29.579Z,1.60
2023-02-26T21:02:56.669Z,1.50
2023-02-26T21:05:24.127Z,1.40
2023-02-26T21:07:51.376Z,1.40
2023-02-26T21:10:19.191Z,1.40
2023-02-26T21:12:46.831Z,1.30
2023-02-26T21:15:14.417Z,1.30
2023-02-26T21:17:43.700Z,1.20
2023-02-26T21:20:12.793Z,1.20
2023-02-26T21:22:39.913Z,1.10
2023-02-26T21:25:08.505Z,1.10
2023-02-26T21:27:36.984Z,1.00
2023-02-26T21:30:08.901Z,1.00
2023-02-26T21:32:35.903Z,1.00
2023-02-26T21:35:02.942Z,1.00
2023-02-26T21:37:29.921Z,0.90
2023-02-26T21:39:56.787Z,0.90
2023-02-26T21:42:24.053Z,0.90
2023-02-26T21:44:51.076Z,0.80
2023-02-26T21:47:19.942Z,0.80
2023-02-26T21:49:46.919Z,0.90
2023-02-26T21:52:13.886Z,0.90
2023-02-26T21:54:41.044Z,0.90
2023-02-26T21:57:07.905Z,0.90
2023-02-26T21:59:35.429Z,0.80
2023-02-26T22:02:02.520Z,0.80
2023-02-26T22:04:29.693Z,0.70
2023-02-26T22:06:56.880Z,0.70
2023-02-26T22:09:23.848Z,0.70
2023-02-26T22:11:50.829Z,0.60
2023-02-26T22:14:17.934Z,0.60
2023-02-26T22:16:44.813Z,0.60
2023-02-26T22:19:11.911Z,0.60
2023-02-26T22:21:38.941Z,0.60
2023-02-26T22:24:06.682Z,0.60
2023-02-26T22:26:33.605Z,0.60
2023-02-26T22:29:00.893Z,0.50
2023-02-26T22:31:32.287Z,0.60
2023-02-26T22:34:00.180Z,0.50
2023-02-26T22:36:29.578Z,0.40
2023-02-26T22:38:57.239Z,0.40
2023-02-26T22:41:24.229Z,0.40
2023-02-26T22:43:53.583Z,0.40
2023-02-26T22:46:21.143Z,0.40
2023-02-26T22:48:48.090Z,0.40
2023-02-26T22:51:15.078Z,0.40
2023-02-26T22:53:41.966Z,0.40
2023-02-26T22:56:08.949Z,0.40
2023-02-26T22:58:36.048Z,0.40
2023-02-26T23:01:05.377Z,0.30
2023-02-26T23:03:32.762Z,0.30
2023-02-26T23:06:00.156Z,0.30
2023-02-26T23:08:27.625Z,0.20
2023-02-26T23:10:56.758Z,0.20
2023-02-26T23:13:25.181Z,0.20
2023-02-26T23:15:52.430Z,0.20
2023-02-26T23:18:19.597Z,0.20
2023-02-26T23:20:47.600Z,0.20
2023-02-26T23:23:14.953Z,0.20
2023-02-26T23:25:42.978Z,0.10
2023-02-26T23:28:10.285Z,0.10
2023-02-26T23:30:37.796Z,0.10
2023-02-26T23:33:07.082Z,0.10
2023-02-26T23:35:35.285Z,0.10
2023-02-26T23:38:02.434Z,0.10
2023-02-26T23:40:29.652Z,0.00
2023-02-26T23:42:56.796Z,-0.10
2023-02-26T23:45:24.190Z,-0.10
2023-02-26T23:47:51.506Z,-0.10
2023-02-26T23:50:18.628Z,-0.20
2023-02-26T23:52:45.576Z,-0.20
2023-02-26T23:55:13.205Z,-0.20
2023-02-26T23:57:40.189Z,-0.20
